Decoded Metar for KLWT (LEWISTOWN in MT, USA) (IATA:LWT) | Meteo·Mobile Aviation Weather
aviador You're here:

KLWT Decoded Metar

LEWISTOWN in MT, USA
Report Time2019-03-23 15:54:00
UTC Time2019-03-23 16:21:49
Flight Rules vfr VFR
Wind220° at 11 kt
W.Decomp.*RWY 21: 11.0 kt HW 1 kt LCW
RWY 26: 6.3 kt HW 9 kt LCW
RWY 13: 2.8 kt HW 10.6 kt RCW
W.Rank220° ranks 10
Current wind is above 220° avg. (10.5)
Visibility9999 m
Phenomena:N/A
Clouds:N/A
Expected CloudBase > 2,000 ft AGL from Temp-Dew spread
CeilingNone
Temp04°C (ISA -3)
Dew Point-1°C (70% RH)
AAT-2.1°C
QNH1014 hPa
Density Alt3,898 ft
Elevation4,167 ft
Report Wrong Elevation
Raw Report
KLWT 231554Z AUTO 22011KT 10SM CLR 04/M01 A2993 RMK AO2 SLP151
T00391006=

Extra information for KLWT:More info

Metar Taf Metar & Taf Last 4 Metars F.Rules Stats Wind Profile Meteogram Temp Stats Airport Information Weather charts Add Link Nearby VenuesMetar ALERT Operation Metar Decoded Social comments

AIRNAV info for KLWT